Minneapolis, NC (28652)

3:04 AM EDT on September 29, 2016 (GMT -0400)
GlenView | | Change Station

Elev 3871 ft 36.13 °N, 81.93 °W | Updated 11 minutes ago

Fog
Fog
55.0 °F
Feels Like 55.0 °F
N
0.0
Wind Variable Wind from ENE
Gusts 1.0 mph

Today
High -- | Low -- °F
--% Chance of Precip.
Yesterday
High -- | Low -- °F
Precip. -- in
Pressure 30.02 in
Visibility 0.5 miles
Clouds Mostly Cloudy 100 ft
Dew Point 44 °F
Humidity 66%
Rainfall 0.00 in
Snow Depth Not available.
7:21 AM 7:13 PM
Waning Crescent, 3% visible
METAR KTNB 290655Z AUTO 00000KT 1/2SM FG BKN001 11/11 A3002 RMK AO2 VIS 1/4V2 T01090109
Pressure 30.02 in
Visibility 0.5 miles
Clouds Mostly Cloudy 100 ft
Dew Point 44 °F
Humidity 66%
Rainfall 0.00 in
Snow Depth Not available.
7:21 AM 7:13 PM
Waning Crescent, 3% visible
METAR KTNB 290655Z AUTO 00000KT 1/2SM FG BKN001 11/11 A3002 RMK AO2 VIS 1/4V2 T01090109

10-Day Weather Forecast

Almanac

Astronomy

Sep. 29, 2016 Rise Set
Actual Time
Civil Twilight
Nautical Twilight
Astronomical Twilight
Moon
Length of Visible Light
Length of Day
Tomorrow will be .
, % of the Moon is Illuminated

Today's Extremes

State Highs State Lows

Community

WunderPhotos

Upload Photos

1,942,446 photos uploaded!

WunderBlog® & News

Nearby

Air Quality

  Air Quality AQ Index Pollutant
Not available.

Snow Depth

Station Depth Elevation

Earthquake Activity

City Distance Mag. Time & Date
Minimum magnitude displayed is 2.5.

Coastal Water Temperatures

Place Temperature

Stations

Nearby Weather Stations

Station Location Temp. Windchill Dew Point Humidity Wind Precip. Elev Updated Type
                   

Watches & Warnings

There are currently no watches in effect.